Terminal Aerodrome Forecast
Issued by NWS Charleston, WV

Home | Current Version | Previous Version | Text Only | Print | Product List | Glossary On
Versions: 1 2 3 4 5 6 7 8 9 10 11 12 13 14 15 16 17 18 19 20 21 22 23
290
FTUS41 KRLX 132320
TAFCRW
TAF
KCRW 132320Z 1400/1424 32005KT P6SM SKC
     FM141700 VRB03KT P6SM BKN100
     FM142200 11004KT P6SM OVC045
     FM142300 10005KT 3SM -SN BR OVC035=

USA.gov is the U.S. government's official web portal to all federal, state and local government web resources and services.